sensor_id;sensor_type;location;lat;lon;timestamp;P1;durP1;ratioP1;P2;durP2;ratioP2
69783;SDS011;57054;51.978;4.498;2022-07-30T00:00:36;3.58;;;1.80;;
69783;SDS011;57054;51.978;4.498;2022-07-30T00:03:02;2.30;;;1.63;;
69783;SDS011;57054;51.978;4.498;2022-07-30T00:05:28;4.28;;;1.98;;
69783;SDS011;57054;51.978;4.498;2022-07-30T00:07:53;4.68;;;2.00;;
69783;SDS011;57054;51.978;4.498;2022-07-30T00:10:18;1.92;;;1.73;;
69783;SDS011;57054;51.978;4.498;2022-07-30T00:12:44;2.10;;;1.90;;
69783;SDS011;57054;51.978;4.498;2022-07-30T00:15:10;7.97;;;2.15;;
69783;SDS011;57054;51.978;4.498;2022-07-30T00:17:35;2.75;;;1.90;;
69783;SDS011;57054;51.978;4.498;2022-07-30T00:20:01;3.33;;;2.10;;
69783;SDS011;57054;51.978;4.498;2022-07-30T00:22:26;3.47;;;2.03;;
69783;SDS011;57054;51.978;4.498;2022-07-30T00:24:51;3.15;;;1.90;;
69783;SDS011;57054;51.978;4.498;2022-07-30T00:27:17;4.32;;;1.92;;
69783;SDS011;57054;51.978;4.498;2022-07-30T00:29:42;2.95;;;2.00;;
69783;SDS011;57054;51.978;4.498;2022-07-30T00:32:08;2.35;;;1.90;;
69783;SDS011;57054;51.978;4.498;2022-07-30T00:34:33;2.38;;;2.17;;
69783;SDS011;57054;51.978;4.498;2022-07-30T00:36:58;6.65;;;2.40;;
69783;SDS011;57054;51.978;4.498;2022-07-30T00:39:24;3.58;;;2.55;;
69783;SDS011;57054;51.978;4.498;2022-07-30T00:41:52;3.72;;;2.20;;
69783;SDS011;57054;51.978;4.498;2022-07-30T00:44:23;3.33;;;2.47;;
69783;SDS011;57054;51.978;4.498;2022-07-30T00:46:48;3.28;;;2.05;;
69783;SDS011;57054;51.978;4.498;2022-07-30T00:49:14;3.08;;;2.58;;
69783;SDS011;57054;51.978;4.498;2022-07-30T00:51:39;2.40;;;2.20;;
69783;SDS011;57054;51.978;4.498;2022-07-30T00:54:05;3.15;;;2.10;;
69783;SDS011;57054;51.978;4.498;2022-07-30T00:56:30;4.00;;;2.53;;
69783;SDS011;57054;51.978;4.498;2022-07-30T00:58:55;2.20;;;2.05;;
69783;SDS011;57054;51.978;4.498;2022-07-30T01:01:21;3.45;;;2.10;;
69783;SDS011;57054;51.978;4.498;2022-07-30T01:03:46;4.45;;;2.65;;
69783;SDS011;57054;51.978;4.498;2022-07-30T01:06:11;2.60;;;2.40;;
69783;SDS011;57054;51.978;4.498;2022-07-30T01:08:37;4.82;;;2.30;;
69783;SDS011;57054;51.978;4.498;2022-07-30T01:11:02;3.70;;;2.85;;
69783;SDS011;57054;51.978;4.498;2022-07-30T01:13:28;2.47;;;2.13;;
69783;SDS011;57054;51.978;4.498;2022-07-30T01:15:53;3.22;;;2.30;;
69783;SDS011;57054;51.978;4.498;2022-07-30T01:18:19;4.07;;;2.35;;
69783;SDS011;57054;51.978;4.498;2022-07-30T01:20:49;3.17;;;2.35;;
69783;SDS011;57054;51.978;4.498;2022-07-30T01:26:04;4.05;;;2.22;;
69783;SDS011;57054;51.978;4.498;2022-07-30T01:28:34;2.95;;;2.13;;
69783;SDS011;57054;51.978;4.498;2022-07-30T01:31:02;2.50;;;1.95;;
69783;SDS011;57054;51.978;4.498;2022-07-30T01:33:29;3.28;;;2.03;;
69783;SDS011;57054;51.978;4.498;2022-07-30T01:35:56;2.80;;;2.17;;
69783;SDS011;57054;51.978;4.498;2022-07-30T01:38:24;1.98;;;1.88;;
69783;SDS011;57054;51.978;4.498;2022-07-30T01:40:53;3.30;;;2.25;;
69783;SDS011;57054;51.978;4.498;2022-07-30T01:43:20;3.80;;;1.98;;
69783;SDS011;57054;51.978;4.498;2022-07-30T01:45:47;3.57;;;2.00;;
69783;SDS011;57054;51.978;4.498;2022-07-30T01:48:14;2.22;;;1.95;;
69783;SDS011;57054;51.978;4.498;2022-07-30T01:50:43;2.75;;;2.00;;
69783;SDS011;57054;51.978;4.498;2022-07-30T01:53:13;3.35;;;2.08;;
69783;SDS011;57054;51.978;4.498;2022-07-30T01:55:43;4.22;;;2.03;;
69783;SDS011;57054;51.978;4.498;2022-07-30T01:58:10;2.75;;;1.92;;
69783;SDS011;57054;51.978;4.498;2022-07-30T02:00:39;1.87;;;1.77;;
69783;SDS011;57054;51.978;4.498;2022-07-30T02:03:08;5.97;;;2.53;;
69783;SDS011;57054;51.978;4.498;2022-07-30T02:05:35;1.80;;;1.70;;
69783;SDS011;57054;51.978;4.498;2022-07-30T02:08:06;3.25;;;1.92;;
69783;SDS011;57054;51.978;4.498;2022-07-30T02:13:10;1.90;;;1.80;;
69783;SDS011;57054;51.978;4.498;2022-07-30T02:15:44;3.88;;;2.00;;
69783;SDS011;57054;51.978;4.498;2022-07-30T02:18:16;3.35;;;2.10;;
69783;SDS011;57054;51.978;4.498;2022-07-30T02:20:45;3.35;;;1.88;;
69783;SDS011;57054;51.978;4.498;2022-07-30T02:23:15;3.88;;;2.08;;
69783;SDS011;57054;51.978;4.498;2022-07-30T02:25:43;2.00;;;1.90;;
69783;SDS011;57054;51.978;4.498;2022-07-30T02:28:14;3.00;;;2.58;;
69783;SDS011;57054;51.978;4.498;2022-07-30T02:30:50;2.30;;;2.03;;
69783;SDS011;57054;51.978;4.498;2022-07-30T02:33:20;2.63;;;2.40;;
69783;SDS011;57054;51.978;4.498;2022-07-30T02:35:48;2.42;;;2.22;;
69783;SDS011;57054;51.978;4.498;2022-07-30T02:38:14;3.45;;;2.72;;
69783;SDS011;57054;51.978;4.498;2022-07-30T02:40:42;2.97;;;2.47;;
69783;SDS011;57054;51.978;4.498;2022-07-30T02:43:09;4.47;;;2.78;;
69783;SDS011;57054;51.978;4.498;2022-07-30T02:45:38;3.40;;;2.85;;
69783;SDS011;57054;51.978;4.498;2022-07-30T02:48:06;3.05;;;2.80;;
69783;SDS011;57054;51.978;4.498;2022-07-30T02:50:33;3.60;;;2.85;;
69783;SDS011;57054;51.978;4.498;2022-07-30T02:52:59;2.92;;;2.72;;
69783;SDS011;57054;51.978;4.498;2022-07-30T02:55:27;3.40;;;2.63;;
69783;SDS011;57054;51.978;4.498;2022-07-30T02:57:55;6.93;;;2.97;;
69783;SDS011;57054;51.978;4.498;2022-07-30T03:00:23;2.80;;;2.60;;
69783;SDS011;57054;51.978;4.498;2022-07-30T03:02:50;2.63;;;2.42;;
69783;SDS011;57054;51.978;4.498;2022-07-30T03:05:17;2.60;;;2.33;;
69783;SDS011;57054;51.978;4.498;2022-07-30T03:07:43;2.75;;;2.55;;
69783;SDS011;57054;51.978;4.498;2022-07-30T03:10:10;2.45;;;2.25;;
69783;SDS011;57054;51.978;4.498;2022-07-30T03:12:37;2.45;;;2.28;;
69783;SDS011;57054;51.978;4.498;2022-07-30T03:15:04;2.50;;;2.30;;
69783;SDS011;57054;51.978;4.498;2022-07-30T03:17:32;2.47;;;2.30;;
69783;SDS011;57054;51.978;4.498;2022-07-30T03:20:02;3.40;;;2.55;;
69783;SDS011;57054;51.978;4.498;2022-07-30T03:22:32;2.97;;;2.70;;
69783;SDS011;57054;51.978;4.498;2022-07-30T03:25:02;4.25;;;3.20;;
69783;SDS011;57054;51.978;4.498;2022-07-30T03:27:29;3.25;;;3.00;;
69783;SDS011;57054;51.978;4.498;2022-07-30T03:29:56;3.17;;;2.92;;
69783;SDS011;57054;51.978;4.498;2022-07-30T03:32:23;3.25;;;2.97;;
69783;SDS011;57054;51.978;4.498;2022-07-30T03:34:49;2.95;;;2.65;;
69783;SDS011;57054;51.978;4.498;2022-07-30T03:37:15;2.92;;;2.55;;
69783;SDS011;57054;51.978;4.498;2022-07-30T03:39:41;3.17;;;2.88;;
69783;SDS011;57054;51.978;4.498;2022-07-30T03:42:07;2.90;;;2.55;;
69783;SDS011;57054;51.978;4.498;2022-07-30T03:44:33;2.72;;;2.50;;
69783;SDS011;57054;51.978;4.498;2022-07-30T03:46:59;2.90;;;2.70;;
69783;SDS011;57054;51.978;4.498;2022-07-30T03:49:26;3.42;;;2.92;;
69783;SDS011;57054;51.978;4.498;2022-07-30T03:51:52;2.80;;;2.60;;
69783;SDS011;57054;51.978;4.498;2022-07-30T03:54:18;2.80;;;2.60;;
69783;SDS011;57054;51.978;4.498;2022-07-30T03:56:44;2.83;;;2.63;;
69783;SDS011;57054;51.978;4.498;2022-07-30T03:59:12;4.47;;;2.80;;
69783;SDS011;57054;51.978;4.498;2022-07-30T04:01:37;3.33;;;2.90;;
69783;SDS011;57054;51.978;4.498;2022-07-30T04:04:04;3.00;;;2.72;;
69783;SDS011;57054;51.978;4.498;2022-07-30T04:06:34;3.63;;;3.13;;
69783;SDS011;57054;51.978;4.498;2022-07-30T04:09:03;3.42;;;3.22;;
69783;SDS011;57054;51.978;4.498;2022-07-30T04:11:30;3.33;;;3.03;;
69783;SDS011;57054;51.978;4.498;2022-07-30T04:13:55;4.38;;;3.10;;
69783;SDS011;57054;51.978;4.498;2022-07-30T04:16:38;4.25;;;3.13;;
69783;SDS011;57054;51.978;4.498;2022-07-30T04:19:15;3.63;;;3.25;;
69783;SDS011;57054;51.978;4.498;2022-07-30T04:21:44;3.80;;;3.50;;
69783;SDS011;57054;51.978;4.498;2022-07-30T04:24:11;3.10;;;2.90;;
69783;SDS011;57054;51.978;4.498;2022-07-30T04:26:38;3.03;;;2.83;;
69783;SDS011;57054;51.978;4.498;2022-07-30T04:29:05;3.75;;;3.42;;
69783;SDS011;57054;51.978;4.498;2022-07-30T04:31:32;3.80;;;3.50;;
69783;SDS011;57054;51.978;4.498;2022-07-30T04:33:59;3.20;;;3.00;;
69783;SDS011;57054;51.978;4.498;2022-07-30T04:36:26;4.55;;;2.83;;
69783;SDS011;57054;51.978;4.498;2022-07-30T04:38:52;3.65;;;3.35;;
69783;SDS011;57054;51.978;4.498;2022-07-30T04:41:17;3.30;;;3.10;;
69783;SDS011;57054;51.978;4.498;2022-07-30T04:43:42;3.78;;;3.15;;
69783;SDS011;57054;51.978;4.498;2022-07-30T04:46:07;3.72;;;3.42;;
69783;SDS011;57054;51.978;4.498;2022-07-30T04:48:33;3.60;;;3.30;;
69783;SDS011;57054;51.978;4.498;2022-07-30T04:50:59;7.38;;;3.70;;
69783;SDS011;57054;51.978;4.498;2022-07-30T04:53:26;3.40;;;3.20;;
69783;SDS011;57054;51.978;4.498;2022-07-30T04:55:53;5.15;;;3.17;;
69783;SDS011;57054;51.978;4.498;2022-07-30T04:58:19;3.60;;;3.30;;
69783;SDS011;57054;51.978;4.498;2022-07-30T05:00:46;3.33;;;3.05;;
69783;SDS011;57054;51.978;4.498;2022-07-30T05:03:13;2.92;;;2.70;;
69783;SDS011;57054;51.978;4.498;2022-07-30T05:05:40;5.13;;;3.20;;
69783;SDS011;57054;51.978;4.498;2022-07-30T05:08:06;3.70;;;3.30;;
69783;SDS011;57054;51.978;4.498;2022-07-30T05:10:32;4.45;;;3.10;;
69783;SDS011;57054;51.978;4.498;2022-07-30T05:12:58;3.17;;;2.90;;
69783;SDS011;57054;51.978;4.498;2022-07-30T05:15:23;3.92;;;3.00;;
69783;SDS011;57054;51.978;4.498;2022-07-30T05:17:49;3.67;;;3.38;;
69783;SDS011;57054;51.978;4.498;2022-07-30T05:20:15;3.65;;;3.13;;
69783;SDS011;57054;51.978;4.498;2022-07-30T05:22:40;3.00;;;2.80;;
69783;SDS011;57054;51.978;4.498;2022-07-30T05:25:06;4.10;;;3.03;;
69783;SDS011;57054;51.978;4.498;2022-07-30T05:27:31;3.40;;;3.10;;
69783;SDS011;57054;51.978;4.498;2022-07-30T05:29:57;3.28;;;3.00;;
69783;SDS011;57054;51.978;4.498;2022-07-30T05:32:22;5.50;;;2.58;;
69783;SDS011;57054;51.978;4.498;2022-07-30T05:34:48;2.85;;;2.40;;
69783;SDS011;57054;51.978;4.498;2022-07-30T05:37:13;3.38;;;2.70;;
69783;SDS011;57054;51.978;4.498;2022-07-30T05:39:38;5.43;;;3.28;;
69783;SDS011;57054;51.978;4.498;2022-07-30T05:42:04;3.50;;;2.80;;
69783;SDS011;57054;51.978;4.498;2022-07-30T05:44:29;3.00;;;2.80;;
69783;SDS011;57054;51.978;4.498;2022-07-30T05:46:54;2.92;;;2.72;;
69783;SDS011;57054;51.978;4.498;2022-07-30T05:49:20;3.22;;;2.55;;
69783;SDS011;57054;51.978;4.498;2022-07-30T05:51:45;2.83;;;2.60;;
69783;SDS011;57054;51.978;4.498;2022-07-30T05:54:11;2.38;;;1.88;;
69783;SDS011;57054;51.978;4.498;2022-07-30T05:56:36;2.00;;;1.83;;
69783;SDS011;57054;51.978;4.498;2022-07-30T05:59:02;2.50;;;1.48;;
69783;SDS011;57054;51.978;4.498;2022-07-30T06:01:28;2.38;;;2.20;;
69783;SDS011;57054;51.978;4.498;2022-07-30T06:03:53;1.65;;;1.55;;
69783;SDS011;57054;51.978;4.498;2022-07-30T06:06:18;1.63;;;1.52;;
69783;SDS011;57054;51.978;4.498;2022-07-30T06:08:44;5.70;;;2.20;;
69783;SDS011;57054;51.978;4.498;2022-07-30T06:11:09;1.92;;;1.80;;
69783;SDS011;57054;51.978;4.498;2022-07-30T06:13:35;3.42;;;2.60;;
69783;SDS011;57054;51.978;4.498;2022-07-30T06:16:01;2.58;;;2.22;;
69783;SDS011;57054;51.978;4.498;2022-07-30T06:18:26;2.47;;;2.28;;
69783;SDS011;57054;51.978;4.498;2022-07-30T06:20:52;1.90;;;1.80;;
69783;SDS011;57054;51.978;4.498;2022-07-30T06:23:19;1.70;;;1.60;;
69783;SDS011;57054;51.978;4.498;2022-07-30T06:25:45;1.65;;;1.55;;
69783;SDS011;57054;51.978;4.498;2022-07-30T06:28:12;1.75;;;1.65;;
69783;SDS011;57054;51.978;4.498;2022-07-30T06:30:38;1.70;;;1.60;;
69783;SDS011;57054;51.978;4.498;2022-07-30T06:33:04;2.58;;;1.80;;
69783;SDS011;57054;51.978;4.498;2022-07-30T06:35:30;3.15;;;1.63;;
69783;SDS011;57054;51.978;4.498;2022-07-30T06:37:55;1.70;;;1.30;;
69783;SDS011;57054;51.978;4.498;2022-07-30T06:40:29;1.83;;;1.20;;
69783;SDS011;57054;51.978;4.498;2022-07-30T06:42:54;1.50;;;1.20;;
69783;SDS011;57054;51.978;4.498;2022-07-30T06:45:20;2.55;;;1.25;;
69783;SDS011;57054;51.978;4.498;2022-07-30T06:47:45;1.50;;;1.30;;
69783;SDS011;57054;51.978;4.498;2022-07-30T06:50:10;2.95;;;1.35;;
69783;SDS011;57054;51.978;4.498;2022-07-30T06:52:36;1.63;;;1.50;;
69783;SDS011;57054;51.978;4.498;2022-07-30T06:55:02;2.28;;;1.38;;
69783;SDS011;57054;51.978;4.498;2022-07-30T06:57:28;1.58;;;1.48;;
69783;SDS011;57054;51.978;4.498;2022-07-30T06:59:54;1.63;;;1.30;;
69783;SDS011;57054;51.978;4.498;2022-07-30T07:02:19;2.63;;;1.63;;
69783;SDS011;57054;51.978;4.498;2022-07-30T07:04:44;3.15;;;1.00;;
69783;SDS011;57054;51.978;4.498;2022-07-30T07:07:10;2.58;;;1.52;;
69783;SDS011;57054;51.978;4.498;2022-07-30T07:09:35;1.10;;;1.00;;
69783;SDS011;57054;51.978;4.498;2022-07-30T07:12:01;2.72;;;1.58;;
69783;SDS011;57054;51.978;4.498;2022-07-30T07:14:26;3.50;;;1.17;;
69783;SDS011;57054;51.978;4.498;2022-07-30T07:16:52;1.70;;;0.95;;
69783;SDS011;57054;51.978;4.498;2022-07-30T07:19:17;1.10;;;0.90;;
69783;SDS011;57054;51.978;4.498;2022-07-30T07:21:43;4.57;;;1.50;;
69783;SDS011;57054;51.978;4.498;2022-07-30T07:24:10;3.08;;;1.30;;
69783;SDS011;57054;51.978;4.498;2022-07-30T07:26:35;1.88;;;1.00;;
69783;SDS011;57054;51.978;4.498;2022-07-30T07:29:01;1.52;;;1.15;;
69783;SDS011;57054;51.978;4.498;2022-07-30T07:31:26;1.17;;;1.02;;
69783;SDS011;57054;51.978;4.498;2022-07-30T07:33:52;5.63;;;1.00;;
69783;SDS011;57054;51.978;4.498;2022-07-30T07:36:20;1.40;;;0.93;;
69783;SDS011;57054;51.978;4.498;2022-07-30T07:38:46;1.80;;;0.93;;
69783;SDS011;57054;51.978;4.498;2022-07-30T07:41:11;1.10;;;1.00;;
69783;SDS011;57054;51.978;4.498;2022-07-30T07:43:37;1.15;;;1.08;;
69783;SDS011;57054;51.978;4.498;2022-07-30T07:46:02;2.47;;;1.00;;
69783;SDS011;57054;51.978;4.498;2022-07-30T07:48:28;1.70;;;0.95;;
69783;SDS011;57054;51.978;4.498;2022-07-30T07:50:53;0.90;;;0.77;;
69783;SDS011;57054;51.978;4.498;2022-07-30T07:53:19;2.42;;;0.80;;
69783;SDS011;57054;51.978;4.498;2022-07-30T07:55:44;2.28;;;1.17;;
69783;SDS011;57054;51.978;4.498;2022-07-30T07:58:10;1.23;;;1.10;;
69783;SDS011;57054;51.978;4.498;2022-07-30T08:00:37;2.42;;;1.00;;
69783;SDS011;57054;51.978;4.498;2022-07-30T08:03:03;1.00;;;0.95;;
69783;SDS011;57054;51.978;4.498;2022-07-30T08:05:28;2.15;;;0.80;;
69783;SDS011;57054;51.978;4.498;2022-07-30T08:07:54;1.60;;;1.00;;
69783;SDS011;57054;51.978;4.498;2022-07-30T08:10:19;0.80;;;0.80;;
69783;SDS011;57054;51.978;4.498;2022-07-30T08:12:45;2.63;;;1.20;;
69783;SDS011;57054;51.978;4.498;2022-07-30T08:15:10;1.35;;;1.00;;
69783;SDS011;57054;51.978;4.498;2022-07-30T08:17:53;1.13;;;0.90;;
69783;SDS011;57054;51.978;4.498;2022-07-30T08:20:19;2.47;;;0.90;;
69783;SDS011;57054;51.978;4.498;2022-07-30T08:22:46;1.17;;;0.77;;
69783;SDS011;57054;51.978;4.498;2022-07-30T08:25:11;1.05;;;0.80;;
69783;SDS011;57054;51.978;4.498;2022-07-30T08:27:37;0.95;;;0.73;;
69783;SDS011;57054;51.978;4.498;2022-07-30T08:30:03;2.28;;;0.90;;
69783;SDS011;57054;51.978;4.498;2022-07-30T08:32:29;0.70;;;0.70;;
69783;SDS011;57054;51.978;4.498;2022-07-30T08:34:55;0.65;;;0.65;;
69783;SDS011;57054;51.978;4.498;2022-07-30T08:37:20;2.55;;;1.25;;
69783;SDS011;57054;51.978;4.498;2022-07-30T08:39:45;3.78;;;1.20;;
69783;SDS011;57054;51.978;4.498;2022-07-30T08:42:11;2.58;;;1.10;;
69783;SDS011;57054;51.978;4.498;2022-07-30T08:44:38;2.90;;;1.17;;
69783;SDS011;57054;51.978;4.498;2022-07-30T08:47:05;1.05;;;0.80;;
69783;SDS011;57054;51.978;4.498;2022-07-30T08:49:33;1.17;;;0.90;;
69783;SDS011;57054;51.978;4.498;2022-07-30T08:52:00;2.50;;;1.10;;
69783;SDS011;57054;51.978;4.498;2022-07-30T08:54:26;1.02;;;1.02;;
69783;SDS011;57054;51.978;4.498;2022-07-30T08:56:52;5.03;;;1.10;;
69783;SDS011;57054;51.978;4.498;2022-07-30T08:59:18;3.40;;;1.15;;
69783;SDS011;57054;51.978;4.498;2022-07-30T09:01:47;1.60;;;1.30;;
69783;SDS011;57054;51.978;4.498;2022-07-30T09:04:13;1.52;;;0.95;;
69783;SDS011;57054;51.978;4.498;2022-07-30T09:06:39;1.00;;;0.90;;
69783;SDS011;57054;51.978;4.498;2022-07-30T09:09:04;1.85;;;1.00;;
69783;SDS011;57054;51.978;4.498;2022-07-30T09:11:32;1.77;;;0.95;;
69783;SDS011;57054;51.978;4.498;2022-07-30T09:14:06;0.98;;;0.90;;
69783;SDS011;57054;51.978;4.498;2022-07-30T09:16:39;1.13;;;0.93;;
69783;SDS011;57054;51.978;4.498;2022-07-30T09:19:12;1.75;;;1.00;;
69783;SDS011;57054;51.978;4.498;2022-07-30T09:21:39;1.33;;;0.95;;
69783;SDS011;57054;51.978;4.498;2022-07-30T09:24:09;0.90;;;0.70;;
69783;SDS011;57054;51.978;4.498;2022-07-30T09:26:52;1.85;;;1.20;;
69783;SDS011;57054;51.978;4.498;2022-07-30T09:29:23;1.10;;;0.93;;
69783;SDS011;57054;51.978;4.498;2022-07-30T09:34:31;2.00;;;1.20;;
69783;SDS011;57054;51.978;4.498;2022-07-30T09:37:19;1.27;;;0.98;;
69783;SDS011;57054;51.978;4.498;2022-07-30T09:39:44;2.95;;;1.25;;
69783;SDS011;57054;51.978;4.498;2022-07-30T09:42:22;1.80;;;1.05;;
69783;SDS011;57054;51.978;4.498;2022-07-30T09:44:49;1.70;;;1.20;;
69783;SDS011;57054;51.978;4.498;2022-07-30T09:47:28;1.80;;;1.00;;
69783;SDS011;57054;51.978;4.498;2022-07-30T09:50:03;1.67;;;0.90;;
69783;SDS011;57054;51.978;4.498;2022-07-30T09:52:39;1.85;;;1.17;;
69783;SDS011;57054;51.978;4.498;2022-07-30T09:55:08;2.30;;;1.20;;
69783;SDS011;57054;51.978;4.498;2022-07-30T09:57:34;1.25;;;1.13;;
69783;SDS011;57054;51.978;4.498;2022-07-30T10:00:17;1.83;;;1.67;;
69783;SDS011;57054;51.978;4.498;2022-07-30T10:02:45;2.97;;;1.05;;
69783;SDS011;57054;51.978;4.498;2022-07-30T10:05:13;1.40;;;1.08;;
69783;SDS011;57054;51.978;4.498;2022-07-30T10:07:39;1.77;;;1.10;;
69783;SDS011;57054;51.978;4.498;2022-07-30T10:10:12;1.38;;;1.10;;
69783;SDS011;57054;51.978;4.498;2022-07-30T10:12:37;1.08;;;0.80;;
69783;SDS011;57054;51.978;4.498;2022-07-30T10:15:03;2.25;;;1.08;;
69783;SDS011;57054;51.978;4.498;2022-07-30T10:17:30;2.95;;;1.00;;
69783;SDS011;57054;51.978;4.498;2022-07-30T10:19:58;0.80;;;0.80;;
69783;SDS011;57054;51.978;4.498;2022-07-30T10:22:23;2.72;;;1.25;;
69783;SDS011;57054;51.978;4.498;2022-07-30T10:24:49;2.55;;;1.08;;
69783;SDS011;57054;51.978;4.498;2022-07-30T10:27:15;3.15;;;0.90;;
69783;SDS011;57054;51.978;4.498;2022-07-30T10:29:40;1.90;;;1.00;;
69783;SDS011;57054;51.978;4.498;2022-07-30T10:32:06;2.80;;;1.20;;
69783;SDS011;57054;51.978;4.498;2022-07-30T10:34:31;2.60;;;1.20;;
69783;SDS011;57054;51.978;4.498;2022-07-30T10:36:59;1.08;;;1.02;;
69783;SDS011;57054;51.978;4.498;2022-07-30T10:39:28;4.03;;;0.90;;
69783;SDS011;57054;51.978;4.498;2022-07-30T10:45:22;0.98;;;0.90;;
69783;SDS011;57054;51.978;4.498;2022-07-30T10:47:51;2.17;;;1.10;;
69783;SDS011;57054;51.978;4.498;2022-07-30T10:50:19;2.45;;;1.20;;
69783;SDS011;57054;51.978;4.498;2022-07-30T10:52:51;1.88;;;1.30;;
69783;SDS011;57054;51.978;4.498;2022-07-30T11:03:11;5.25;;;1.13;;
69783;SDS011;57054;51.978;4.498;2022-07-30T11:05:50;2.92;;;1.35;;
69783;SDS011;57054;51.978;4.498;2022-07-30T11:08:40;3.63;;;1.30;;
69783;SDS011;57054;51.978;4.498;2022-07-30T11:13:56;4.35;;;1.50;;
69783;SDS011;57054;51.978;4.498;2022-07-30T11:17:08;2.33;;;1.40;;
69783;SDS011;57054;51.978;4.498;2022-07-30T11:19:10;3.92;;;1.23;;
69783;SDS011;57054;51.978;4.498;2022-07-30T11:21:40;1.52;;;1.20;;
69783;SDS011;57054;51.978;4.498;2022-07-30T11:24:13;2.10;;;1.30;;
69783;SDS011;57054;51.978;4.498;2022-07-30T11:32:40;5.30;;;1.65;;
69783;SDS011;57054;51.978;4.498;2022-07-30T11:37:54;2.55;;;1.20;;
69783;SDS011;57054;51.978;4.498;2022-07-30T11:40:33;1.67;;;1.40;;
69783;SDS011;57054;51.978;4.498;2022-07-30T11:45:41;1.95;;;1.70;;
69783;SDS011;57054;51.978;4.498;2022-07-30T11:48:11;1.65;;;1.42;;
69783;SDS011;57054;51.978;4.498;2022-07-30T11:50:39;3.47;;;1.70;;
69783;SDS011;57054;51.978;4.498;2022-07-30T11:53:06;1.67;;;1.40;;
69783;SDS011;57054;51.978;4.498;2022-07-30T11:55:34;2.40;;;1.27;;
69783;SDS011;57054;51.978;4.498;2022-07-30T11:58:05;1.65;;;1.40;;
69783;SDS011;57054;51.978;4.498;2022-07-30T12:00:39;3.20;;;1.23;;
69783;SDS011;57054;51.978;4.498;2022-07-30T12:03:13;2.50;;;1.42;;
69783;SDS011;57054;51.978;4.498;2022-07-30T12:05:40;1.35;;;1.25;;
69783;SDS011;57054;51.978;4.498;2022-07-30T12:08:06;2.55;;;1.05;;
69783;SDS011;57054;51.978;4.498;2022-07-30T12:10:33;4.20;;;1.45;;
69783;SDS011;57054;51.978;4.498;2022-07-30T12:13:10;2.58;;;1.65;;
69783;SDS011;57054;51.978;4.498;2022-07-30T12:15:36;2.03;;;1.30;;
69783;SDS011;57054;51.978;4.498;2022-07-30T12:18:10;1.48;;;1.30;;
69783;SDS011;57054;51.978;4.498;2022-07-30T12:20:37;2.15;;;1.23;;
69783;SDS011;57054;51.978;4.498;2022-07-30T12:23:13;2.15;;;1.33;;
69783;SDS011;57054;51.978;4.498;2022-07-30T12:25:42;2.72;;;1.40;;
69783;SDS011;57054;51.978;4.498;2022-07-30T12:28:08;1.45;;;1.27;;
69783;SDS011;57054;51.978;4.498;2022-07-30T12:30:41;1.25;;;0.90;;
69783;SDS011;57054;51.978;4.498;2022-07-30T12:33:06;4.25;;;1.50;;
69783;SDS011;57054;51.978;4.498;2022-07-30T12:35:48;5.22;;;1.77;;
69783;SDS011;57054;51.978;4.498;2022-07-30T12:38:15;7.90;;;1.65;;
69783;SDS011;57054;51.978;4.498;2022-07-30T12:46:22;1.83;;;1.13;;
69783;SDS011;57054;51.978;4.498;2022-07-30T12:51:25;4.32;;;1.02;;
69783;SDS011;57054;51.978;4.498;2022-07-30T12:53:53;3.08;;;1.40;;
69783;SDS011;57054;51.978;4.498;2022-07-30T12:56:24;2.38;;;1.55;;
69783;SDS011;57054;51.978;4.498;2022-07-30T12:58:52;4.28;;;1.15;;
69783;SDS011;57054;51.978;4.498;2022-07-30T13:01:18;4.82;;;1.45;;
69783;SDS011;57054;51.978;4.498;2022-07-30T13:04:06;4.60;;;1.17;;
69783;SDS011;57054;51.978;4.498;2022-07-30T13:08:57;4.27;;;1.40;;
69783;SDS011;57054;51.978;4.498;2022-07-30T13:11:36;2.58;;;1.55;;
69783;SDS011;57054;51.978;4.498;2022-07-30T13:14:03;2.05;;;0.98;;
69783;SDS011;57054;51.978;4.498;2022-07-30T13:16:33;2.83;;;1.70;;
69783;SDS011;57054;51.978;4.498;2022-07-30T13:18:59;2.60;;;1.30;;
69783;SDS011;57054;51.978;4.498;2022-07-30T13:21:25;1.60;;;1.15;;
69783;SDS011;57054;51.978;4.498;2022-07-30T13:23:50;2.63;;;1.40;;
69783;SDS011;57054;51.978;4.498;2022-07-30T13:26:16;1.52;;;1.30;;
69783;SDS011;57054;51.978;4.498;2022-07-30T13:28:42;2.15;;;1.40;;
69783;SDS011;57054;51.978;4.498;2022-07-30T13:31:07;2.78;;;1.38;;
69783;SDS011;57054;51.978;4.498;2022-07-30T13:33:34;3.67;;;1.63;;
69783;SDS011;57054;51.978;4.498;2022-07-30T13:35:59;2.63;;;1.20;;
69783;SDS011;57054;51.978;4.498;2022-07-30T13:38:25;2.42;;;1.40;;
69783;SDS011;57054;51.978;4.498;2022-07-30T13:40:51;2.67;;;1.30;;
69783;SDS011;57054;51.978;4.498;2022-07-30T13:43:17;2.33;;;1.30;;
69783;SDS011;57054;51.978;4.498;2022-07-30T13:45:42;1.25;;;1.15;;
69783;SDS011;57054;51.978;4.498;2022-07-30T13:48:08;3.53;;;1.50;;
69783;SDS011;57054;51.978;4.498;2022-07-30T13:50:33;2.92;;;1.48;;
69783;SDS011;57054;51.978;4.498;2022-07-30T13:52:58;7.40;;;1.45;;
69783;SDS011;57054;51.978;4.498;2022-07-30T13:55:24;1.83;;;1.20;;
69783;SDS011;57054;51.978;4.498;2022-07-30T13:57:49;3.97;;;1.70;;
69783;SDS011;57054;51.978;4.498;2022-07-30T14:00:15;1.83;;;1.10;;
69783;SDS011;57054;51.978;4.498;2022-07-30T14:02:40;3.58;;;1.17;;
69783;SDS011;57054;51.978;4.498;2022-07-30T14:05:06;2.95;;;1.23;;
69783;SDS011;57054;51.978;4.498;2022-07-30T14:07:33;2.25;;;1.30;;
69783;SDS011;57054;51.978;4.498;2022-07-30T14:09:59;1.83;;;1.50;;
69783;SDS011;57054;51.978;4.498;2022-07-30T14:12:24;4.28;;;1.50;;
69783;SDS011;57054;51.978;4.498;2022-07-30T14:14:50;2.13;;;1.20;;
69783;SDS011;57054;51.978;4.498;2022-07-30T14:17:15;2.00;;;1.35;;
69783;SDS011;57054;51.978;4.498;2022-07-30T14:19:40;1.20;;;1.15;;
69783;SDS011;57054;51.978;4.498;2022-07-30T14:22:06;2.75;;;1.33;;
69783;SDS011;57054;51.978;4.498;2022-07-30T14:24:31;2.38;;;1.40;;
69783;SDS011;57054;51.978;4.498;2022-07-30T14:26:57;1.83;;;1.30;;
69783;SDS011;57054;51.978;4.498;2022-07-30T14:29:22;2.80;;;1.67;;
69783;SDS011;57054;51.978;4.498;2022-07-30T14:31:48;4.47;;;1.13;;
69783;SDS011;57054;51.978;4.498;2022-07-30T14:34:13;5.38;;;1.60;;
69783;SDS011;57054;51.978;4.498;2022-07-30T14:36:41;1.92;;;1.33;;
69783;SDS011;57054;51.978;4.498;2022-07-30T14:39:07;3.08;;;1.40;;
69783;SDS011;57054;51.978;4.498;2022-07-30T14:41:33;1.67;;;1.13;;
69783;SDS011;57054;51.978;4.498;2022-07-30T14:44:01;1.58;;;1.27;;
69783;SDS011;57054;51.978;4.498;2022-07-30T14:46:27;5.25;;;1.60;;
69783;SDS011;57054;51.978;4.498;2022-07-30T14:48:52;7.00;;;1.85;;
69783;SDS011;57054;51.978;4.498;2022-07-30T14:51:18;13.73;;;3.33;;
69783;SDS011;57054;51.978;4.498;2022-07-30T14:53:43;6.65;;;2.42;;
69783;SDS011;57054;51.978;4.498;2022-07-30T14:56:09;4.55;;;2.10;;
69783;SDS011;57054;51.978;4.498;2022-07-30T14:58:34;5.53;;;1.63;;
69783;SDS011;57054;51.978;4.498;2022-07-30T15:01:00;3.97;;;1.77;;
69783;SDS011;57054;51.978;4.498;2022-07-30T15:03:25;2.88;;;1.13;;
69783;SDS011;57054;51.978;4.498;2022-07-30T15:05:50;5.30;;;1.40;;
69783;SDS011;57054;51.978;4.498;2022-07-30T15:08:16;2.40;;;1.45;;
69783;SDS011;57054;51.978;4.498;2022-07-30T15:10:41;1.55;;;1.42;;
69783;SDS011;57054;51.978;4.498;2022-07-30T15:13:07;2.15;;;1.30;;
69783;SDS011;57054;51.978;4.498;2022-07-30T15:15:32;4.55;;;1.95;;
69783;SDS011;57054;51.978;4.498;2022-07-30T15:17:59;3.15;;;1.40;;
69783;SDS011;57054;51.978;4.498;2022-07-30T15:20:25;2.40;;;1.40;;
69783;SDS011;57054;51.978;4.498;2022-07-30T15:22:51;4.75;;;1.80;;
69783;SDS011;57054;51.978;4.498;2022-07-30T15:25:16;4.28;;;1.50;;
69783;SDS011;57054;51.978;4.498;2022-07-30T15:27:42;3.00;;;1.63;;
69783;SDS011;57054;51.978;4.498;2022-07-30T15:30:07;1.88;;;1.45;;
69783;SDS011;57054;51.978;4.498;2022-07-30T15:32:33;1.98;;;1.35;;